createdAt,value
2023-01-18T00:01:08.342Z,82.02
2023-01-18T00:06:12.267Z,81.50
2023-01-18T00:11:17.517Z,81.14
2023-01-18T00:16:22.594Z,81.08
2023-01-18T00:21:28.198Z,81.16
2023-01-18T00:26:32.015Z,81.08
2023-01-18T00:31:35.817Z,80.96
2023-01-18T00:36:41.518Z,80.90
2023-01-18T00:42:05.558Z,80.32
2023-01-18T00:47:09.432Z,80.69
2023-01-18T00:52:13.343Z,80.69
2023-01-18T00:57:17.238Z,80.15
2023-01-18T01:02:21.140Z,80.02
2023-01-18T01:07:25.219Z,80.31
2023-01-18T01:12:47.579Z,80.13
2023-01-18T01:18:09.898Z,80.07
2023-01-18T01:23:40.995Z,80.23
2023-01-18T01:28:50.136Z,80.16
2023-01-18T01:33:53.959Z,80.42
2023-01-18T01:38:58.284Z,80.23
2023-01-18T01:44:21.899Z,80.40
2023-01-18T01:49:30.319Z,80.17
2023-01-18T01:54:38.919Z,80.58
2023-01-18T01:59:47.606Z,79.91
2023-01-18T02:04:53.999Z,80.00
2023-01-18T02:09:58.335Z,80.09
2023-01-18T02:15:02.515Z,80.04
2023-01-18T02:20:44.379Z,80.34
2023-01-18T02:26:33.676Z,80.24
2023-01-18T02:32:11.402Z,80.68
2023-01-18T02:37:52.036Z,81.41
2023-01-18T02:43:16.249Z,81.01
2023-01-18T02:48:22.099Z,80.68
2023-01-18T02:53:25.915Z,80.39
2023-01-18T02:58:56.259Z,80.40
2023-01-18T03:04:08.045Z,80.22
2023-01-18T03:09:18.779Z,80.12
2023-01-18T03:14:47.960Z,80.27
2023-01-18T03:20:05.464Z,80.19
2023-01-18T03:25:13.833Z,80.31
2023-01-18T03:30:36.295Z,80.14
2023-01-18T03:35:41.139Z,80.17
2023-01-18T03:40:45.016Z,80.09
2023-01-18T03:45:49.833Z,80.23
2023-01-18T03:51:15.136Z,80.00
2023-01-18T03:56:30.339Z,80.02
2023-01-18T04:01:34.294Z,80.38
2023-01-18T04:06:38.142Z,80.24
2023-01-18T04:11:41.883Z,80.08
2023-01-18T04:16:45.866Z,80.33
2023-01-18T04:21:49.561Z,80.43
2023-01-18T04:26:53.298Z,80.88
2023-01-18T04:31:57.281Z,81.27
2023-01-18T04:37:01.214Z,81.25
2023-01-18T04:42:05.295Z,81.85
2023-01-18T04:47:09.036Z,81.54
2023-01-18T04:52:12.977Z,81.43
2023-01-18T04:57:17.005Z,81.75
2023-01-18T05:02:20.838Z,82.40
2023-01-18T05:07:25.676Z,82.54
2023-01-18T05:12:30.093Z,83.41
2023-01-18T05:17:35.600Z,83.40
2023-01-18T05:22:39.721Z,83.81
2023-01-18T05:27:43.470Z,84.10
2023-01-18T05:32:47.269Z,84.27
2023-01-18T05:37:51.092Z,84.47
2023-01-18T05:42:54.993Z,84.76
2023-01-18T05:47:59.855Z,85.26
2023-01-18T05:53:03.603Z,85.67
2023-01-18T05:58:07.413Z,85.76
2023-01-18T06:03:11.150Z,85.80
2023-01-18T06:08:15.927Z,86.88
2023-01-18T06:13:19.931Z,87.06
2023-01-18T06:18:26.529Z,87.24
2023-01-18T06:23:31.406Z,87.25
2023-01-18T06:28:35.424Z,87.24
2023-01-18T06:33:39.234Z,88.04
2023-01-18T06:38:43.350Z,88.50
2023-01-18T06:43:47.194Z,88.89
2023-01-18T06:48:50.790Z,88.91
2023-01-18T06:53:54.549Z,88.92
2023-01-18T06:58:59.872Z,88.66
2023-01-18T07:04:03.721Z,88.80
2023-01-18T07:09:08.542Z,88.90
2023-01-18T07:14:15.318Z,88.82
2023-01-18T07:19:19.186Z,89.31
2023-01-18T07:24:22.959Z,89.39
2023-01-18T07:29:28.043Z,89.24
2023-01-18T07:34:32.800Z,89.56
2023-01-18T07:39:36.596Z,89.78
2023-01-18T07:44:40.405Z,89.83
2023-01-18T07:49:45.142Z,89.49
2023-01-18T07:54:48.898Z,89.47
2023-01-18T07:59:53.321Z,89.62
2023-01-18T08:04:56.998Z,89.35
2023-01-18T08:10:00.723Z,89.33
2023-01-18T08:15:05.165Z,89.28
2023-01-18T08:20:10.353Z,89.29
2023-01-18T08:25:14.638Z,89.29
2023-01-18T08:30:18.731Z,89.03
2023-01-18T08:35:23.848Z,88.90
2023-01-18T08:40:28.618Z,88.79
2023-01-18T08:45:33.490Z,88.86
2023-01-18T08:50:39.585Z,88.86
2023-01-18T08:55:43.585Z,88.61
2023-01-18T09:00:50.919Z,88.64
2023-01-18T09:05:54.946Z,88.67
2023-01-18T09:11:06.220Z,88.47
2023-01-18T09:16:11.708Z,88.30
2023-01-18T09:21:19.719Z,87.94
2023-01-18T09:26:23.677Z,87.88
2023-01-18T09:31:29.094Z,87.93
2023-01-18T09:36:33.078Z,87.85
2023-01-18T09:41:51.039Z,87.81
2023-01-18T09:47:11.169Z,88.00
2023-01-18T09:53:03.388Z,88.11
2023-01-18T09:58:49.179Z,87.96
2023-01-18T10:03:56.947Z,88.02
2023-01-18T10:09:07.226Z,87.89
2023-01-18T10:14:49.378Z,87.90
2023-01-18T10:19:53.259Z,87.76
2023-01-18T10:25:21.345Z,87.76
2023-01-18T10:30:40.886Z,87.43
2023-01-18T10:35:51.103Z,87.23
2023-01-18T10:41:01.097Z,87.35
2023-01-18T10:46:14.883Z,87.39
2023-01-18T10:51:29.716Z,87.48
2023-01-18T10:56:34.890Z,87.52
2023-01-18T11:01:55.039Z,87.46
2023-01-18T11:07:03.753Z,87.79
2023-01-18T11:12:43.244Z,87.31
2023-01-18T11:18:03.217Z,87.24
2023-01-18T11:23:32.214Z,87.66
2023-01-18T11:28:48.690Z,87.48
2023-01-18T11:34:01.033Z,87.53
2023-01-18T11:39:45.477Z,87.74
2023-01-18T11:45:13.799Z,87.85
2023-01-18T11:50:49.759Z,87.78
2023-01-18T11:56:06.767Z,87.86
2023-01-18T12:01:39.203Z,87.78
2023-01-18T12:07:18.509Z,87.72
2023-01-18T12:12:57.770Z,87.73
2023-01-18T12:18:38.779Z,87.63
2023-01-18T12:24:21.075Z,87.85
2023-01-18T12:29:55.884Z,87.46
2023-01-18T12:35:33.189Z,87.60
2023-01-18T12:41:03.055Z,87.69
2023-01-18T12:46:32.461Z,87.86
2023-01-18T12:51:38.031Z,87.81
2023-01-18T12:56:47.713Z,87.94
2023-01-18T13:02:03.603Z,87.80
2023-01-18T13:07:13.561Z,87.87
2023-01-18T13:12:20.660Z,87.82
2023-01-18T13:17:41.681Z,88.01
2023-01-18T13:23:16.448Z,87.09
2023-01-18T13:28:24.989Z,87.17
2023-01-18T13:33:48.097Z,87.09
2023-01-18T13:39:03.937Z,87.27
2023-01-18T13:44:32.676Z,87.61
2023-01-18T13:49:46.279Z,87.63
2023-01-18T13:55:26.338Z,87.72
2023-01-18T14:00:30.551Z,87.56
2023-01-18T14:05:40.252Z,87.50
2023-01-18T14:10:50.534Z,87.50
2023-01-18T14:15:55.917Z,87.46
2023-01-18T14:21:33.590Z,87.04
2023-01-18T14:26:41.017Z,86.88
2023-01-18T14:31:51.670Z,87.01
2023-01-18T14:36:57.138Z,87.23
2023-01-18T14:42:04.235Z,87.54
2023-01-18T14:47:24.382Z,87.72
2023-01-18T14:52:31.105Z,87.75
2023-01-18T14:57:35.743Z,88.03
2023-01-18T15:02:39.642Z,88.56
2023-01-18T15:07:46.997Z,88.87
2023-01-18T15:12:53.725Z,89.34
2023-01-18T15:18:10.789Z,89.31
2023-01-18T15:23:14.578Z,89.10
2023-01-18T15:28:23.825Z,89.36
2023-01-18T15:33:28.653Z,89.66
2023-01-18T15:38:33.061Z,89.53
2023-01-18T15:43:45.279Z,89.52
2023-01-18T15:48:55.948Z,89.36
2023-01-18T15:53:59.551Z,89.55
2023-01-18T15:59:10.114Z,89.66
2023-01-18T16:04:13.964Z,89.55
2023-01-18T16:09:21.333Z,89.65
2023-01-18T16:14:54.303Z,89.59
2023-01-18T16:19:58.262Z,89.97
2023-01-18T16:25:17.375Z,90.40
2023-01-18T16:30:31.157Z,90.38
2023-01-18T16:35:41.151Z,89.87
2023-01-18T16:40:50.360Z,89.94
2023-01-18T16:45:59.375Z,89.82
2023-01-18T16:51:17.407Z,89.83
2023-01-18T16:56:23.106Z,89.83
2023-01-18T17:01:30.828Z,89.72
2023-01-18T17:06:35.503Z,89.86
2023-01-18T17:11:42.716Z,90.03
2023-01-18T17:16:52.892Z,89.88
2023-01-18T17:21:58.623Z,89.76
2023-01-18T17:27:03.104Z,89.75
2023-01-18T17:32:08.747Z,89.75
2023-01-18T17:37:15.620Z,89.89
2023-01-18T17:42:29.780Z,90.20
2023-01-18T17:47:35.727Z,90.14
2023-01-18T17:52:42.085Z,89.96
2023-01-18T17:57:47.248Z,89.90
2023-01-18T18:02:54.639Z,90.06
2023-01-18T18:08:01.494Z,90.11
2023-01-18T18:13:06.751Z,90.09
2023-01-18T18:18:22.705Z,90.07
2023-01-18T18:23:31.180Z,90.15
2023-01-18T18:28:38.722Z,90.15
2023-01-18T18:33:44.479Z,90.46
2023-01-18T18:38:50.376Z,90.56
2023-01-18T18:43:55.333Z,90.77
2023-01-18T18:49:05.372Z,90.77
2023-01-18T18:54:12.398Z,90.58
2023-01-18T18:59:17.994Z,90.84
2023-01-18T19:04:23.456Z,90.95
2023-01-18T19:09:29.083Z,90.76
2023-01-18T19:14:34.860Z,90.82
2023-01-18T19:19:39.503Z,90.71
2023-01-18T19:24:45.301Z,90.38
2023-01-18T19:29:50.944Z,90.44
2023-01-18T19:34:55.775Z,90.56
2023-01-18T19:40:00.885Z,90.55
2023-01-18T19:45:19.614Z,90.61
2023-01-18T19:50:31.702Z,90.85
2023-01-18T19:55:39.356Z,91.07
2023-01-18T20:00:46.209Z,91.21
2023-01-18T20:05:51.380Z,91.37
2023-01-18T20:10:56.511Z,91.50
2023-01-18T20:16:06.457Z,91.45
2023-01-18T20:21:14.920Z,91.41
2023-01-18T20:26:34.918Z,91.18
2023-01-18T20:31:49.629Z,91.13
2023-01-18T20:37:03.438Z,91.04
2023-01-18T20:42:10.977Z,90.96
2023-01-18T20:47:17.676Z,91.01
2023-01-18T20:52:22.286Z,91.02
2023-01-18T20:57:32.942Z,91.12
2023-01-18T21:02:38.096Z,91.69
2023-01-18T21:07:42.243Z,91.98
2023-01-18T21:12:48.275Z,91.42
2023-01-18T21:17:54.960Z,91.25
2023-01-18T21:23:00.557Z,91.32
2023-01-18T21:28:04.575Z,91.37
2023-01-18T21:33:11.685Z,91.29
2023-01-18T21:38:16.605Z,91.42
2023-01-18T21:43:40.659Z,91.87
2023-01-18T21:48:44.376Z,91.99
2023-01-18T21:54:07.497Z,91.86
2023-01-18T21:59:38.325Z,91.81
2023-01-18T22:18:16.048Z,91.74
2023-01-18T22:23:23.574Z,91.90
2023-01-18T22:28:29.377Z,91.94
2023-01-18T22:33:33.559Z,91.86
2023-01-18T22:38:38.383Z,91.87
2023-01-18T22:43:42.825Z,91.89
2023-01-18T22:48:50.389Z,91.79
2023-01-18T22:53:58.862Z,91.66
2023-01-18T22:59:02.746Z,91.71
2023-01-18T23:04:07.096Z,91.66
2023-01-18T23:09:10.844Z,91.79
2023-01-18T23:14:33.396Z,91.86
2023-01-18T23:19:37.171Z,92.09
2023-01-18T23:24:40.945Z,92.17
2023-01-18T23:29:47.705Z,92.04
2023-01-18T23:34:51.516Z,91.99
2023-01-18T23:40:14.486Z,92.61
2023-01-18T23:45:37.097Z,93.25
2023-01-18T23:50:59.629Z,92.82
2023-01-18T23:56:03.382Z,92.53
